Balikesir, Turkey
Current Conditions -  °F | °C
As of 10:50 AM on Monday 24 Nov 2014 (Local Time) from LTBF Reporting Station
Scattered Clouds Scattered Clouds  
Wind Chill: 10°   Ceiling: Unl
Heat Index: 10°   Visibility: 6mi
Dew Point:   Wind: 12mph
Humidity: 66%   Direction: 20°NNE
Pressure: 30.24"   Gusts: NA
Location:  39.65°N, 27.88°E
Report Text: LTBF 240750Z 02010KT 350V050 9999 SCT035 10/04 Q1024 NOSIG
Loading
Personal Weather Stations






























Interactive Weather Map New forecast layout! Learn more

10-Day Weather Forecast

Advertisements
Track Severe Weather on mobile